Flight Track Log - Related Links

Times and Time Zones

All times are in EDT time to prevent confusion due to time zone crossing. See the N425JA flight status page for this flight to view local times or setup timezone preferences in your user account.

Time Position Orientation Groundspeed Altitude Reporting Facility
EDT Latitude Longitude Course Direction KTS MPH feet Rate Location/Type
Tue 10:11:16 AM 39.0833 -84.4167 218° Southwest 108 124 1,100  Level Cincinnati TRACON
Tue 10:12:04 AM 39.0667 -84.4333 218° Southwest 119 137 2,000 833 Climbing Cincinnati TRACON
Tue 10:13:04 AM 39.0167 -84.4333 180° South 145 167 2,600 722 Climbing Cincinnati TRACON
Tue 10:13:52 AM 38.9833 -84.4167 159° South 145 167 3,300 824 Climbing Cincinnati TRACON
Tue 10:14:46 AM 38.9667 -84.4167 180° South 137 158 4,000 783 Climbing Cincinnati TRACON
Tue 10:15:47 AM 38.9167 -84.4167 180° South 129 148 4,800 792 Climbing Cincinnati TRACON
Tue 10:16:32 AM 38.9000 -84.4119 168° South 130 150 5,400 561 Climbing Indianapolis Center
Tue 10:17:34 AM 38.8628 -84.4050 172° South 131 151 5,800 242 Climbing Indianapolis Center
Tue 10:18:36 AM 38.8211 -84.3997 174° South 146 168 5,900 48 Climbing Indianapolis Center
Tue 10:19:38 AM 38.7656 -84.3908 173° South 163 188 5,900  Level Indianapolis Center
Tue 10:20:40 AM 38.7192 -84.3844 174° South 164 189 5,900  Level Indianapolis Center
Tue 10:21:42 AM 38.6739 -84.3783 174° South 164 189 5,900  Level Indianapolis Center
Tue 10:22:44 AM 38.6286 -84.3717 173° South 164 189 5,900  Level Indianapolis Center
Tue 10:23:46 AM 38.5833 -84.3681 176° South 164 189 5,900  Level Indianapolis Center
Tue 10:24:48 AM 38.5303 -84.3583 172° South 164 189 5,900  Level Indianapolis Center
Tue 10:25:50 AM 38.4858 -84.3517 173° South 164 189 5,900  Level Indianapolis Center
Tue 10:26:52 AM 38.4411 -84.3453 174° South 164 189 5,900 48 Level Indianapolis Center
Tue 10:27:54 AM 38.3967 -84.3408 176° South 164 189 6,000  Climbing Indianapolis Center
Tue 10:28:56 AM 38.3503 -84.3328 172° South 164 189 5,900 -32 Descending Indianapolis Center
Tue 10:31:00 AM 38.2528 -84.3208 173° South 164 189 5,900  Level Indianapolis Center
Tue 10:32:02 AM 38.2083 -84.3131 172° South 163 188 5,900  Level Indianapolis Center
Tue 10:33:04 AM 38.1622 -84.3064 174° South 163 188 5,900  Level Indianapolis Center
Tue 10:34:06 AM 38.1161 -84.3011 175° South 164 189 5,900  Level Indianapolis Center
Tue 10:35:07 AM 38.0711 -84.2947 174° South 164 189 5,900  Level Indianapolis Center
Tue 10:36:09 AM 38.0192 -84.2883 174° South 163 188 5,900  Level Indianapolis Center
Tue 10:37:11 AM 37.9742 -84.2811 173° South 163 188 5,900  Level Indianapolis Center
Tue 10:38:13 AM 37.9283 -84.2758 175° South 163 188 5,900  Level Indianapolis Center
Tue 10:39:15 AM 37.8833 -84.2700 174° South 163 188 5,900  Level Indianapolis Center
Tue 10:40:17 AM 37.8389 -84.2625 172° South 163 188 5,900  Level Indianapolis Center
Tue 10:41:19 AM 37.7919 -84.2575 175° South 164 189 5,900  Level Indianapolis Center
Tue 10:42:20 AM 37.7383 -84.2500 174° South 164 189 5,900  Level Indianapolis Center
Tue 10:43:22 AM 37.6933 -84.2442 174° South 165 190 5,900  Level Indianapolis Center
Tue 10:44:24 AM 37.6486 -84.2369 173° South 164 189 5,900  Level Indianapolis Center
Tue 10:45:26 AM 37.6031 -84.2306 174° South 164 189 5,900  Level Indianapolis Center
Tue 10:46:28 AM 37.5558 -84.2256 175° South 167 192 5,900  Level Indianapolis Center
Tue 10:47:30 AM 37.5103 -84.2189 173° South 166 191 5,900  Level Indianapolis Center
Tue 10:48:32 AM 37.4567 -84.2103 173° South 167 192 5,900  Level Indianapolis Center
Tue 10:49:33 AM 37.4103 -84.2039 174° South 166 191 5,900  Level Indianapolis Center
Tue 10:50:35 AM 37.3644 -84.1983 174° South 166 191 5,900  Level Indianapolis Center
Tue 10:51:37 AM 37.3178 -84.1928 175° South 166 191 5,900  Level Indianapolis Center
Tue 10:52:39 AM 37.2722 -84.1858 173° South 167 192 5,900  Level Indianapolis Center
Tue 10:53:41 AM 37.2261 -84.1797 174° South 166 191 5,900  Level Indianapolis Center
Tue 10:54:42 AM 37.1711 -84.1725 174° South 167 192 5,900  Level Indianapolis Center
Tue 10:55:44 AM 37.1244 -84.1669 175° South 167 192 5,900  Level Indianapolis Center
Tue 10:56:46 AM 37.0786 -84.1614 174° South 167 192 5,900  Level Indianapolis Center
Tue 10:57:48 AM 37.0325 -84.1533 172° South 167 192 5,900  Level Indianapolis Center
Tue 10:58:50 AM 36.9858 -84.1478 175° South 167 192 5,900  Level Indianapolis Center
Tue 10:59:51 AM 36.9403 -84.1414 174° South 167 192 5,900  Level Indianapolis Center
Tue 11:00:53 AM 36.8872 -84.1347 174° South 164 189 5,900  Level Indianapolis Center
Tue 11:01:55 AM 36.8422 -84.1281 173° South 164 189 5,900  Level Indianapolis Center
Tue 11:02:57 AM 36.7969 -84.1222 174° South 164 189 5,900  Level Indianapolis Center
Tue 11:03:59 AM 36.7503 -84.1164 174° South 164 189 5,900  Level Indianapolis Center
Tue 11:05:01 AM 36.7056 -84.1106 174° South 164 189 5,900  Level Indianapolis Center
Tue 11:06:02 AM 36.6611 -84.1039 173° South 164 189 5,900  Level Indianapolis Center
Tue 11:07:04 AM 36.6094 -84.0972 174° South 163 188 5,900  Level Indianapolis Center
Tue 11:08:06 AM 36.5650 -84.0919 175° South 163 188 5,900  Level Indianapolis Center
Tue 11:09:08 AM 36.5189 -84.0856 174° South 163 188 5,900  Level Indianapolis Center
Tue 11:10:10 AM 36.4736 -84.0806 175° South 163 188 5,900  Level Indianapolis Center
Tue 11:11:11 AM 36.4286 -84.0747 174° South 163 188 5,900  Level Indianapolis Center
Tue 11:12:13 AM 36.3811 -84.0669 172° South 165 190 5,900  Level Indianapolis Center
Tue 11:13:15 AM 36.3369 -84.0617 175° South 165 190 5,900  Level Indianapolis Center
Tue 11:14:17 AM 36.2825 -84.0544 174° South 165 190 5,900  Level Indianapolis Center
Tue 11:15:19 AM 36.2381 -84.0483 174° South 164 189 5,900  Level Indianapolis Center
Tue 11:16:20 AM 36.1953 -84.0617 194° South 163 188 5,900  Level Indianapolis Center
Tue 11:17:22 AM 36.1544 -84.0828 203° Southwest 161 185 5,900  Level Indianapolis Center
Tue 11:18:24 AM 36.1103 -84.1003 198° South 161 185 5,900  Level Indianapolis Center
Tue 11:19:34 AM 36.0561 -84.1261 201° Southwest 165 190 5,900  Level Atlanta Center

Login

Don't have an account? Register now (free) for customized features, flight alerts, and more!